»·PEaware :: SWA2192 KDAL-KAUS

SWA2192 :: KDAL-KAUS

FLIGHT INFORMATION

Flight Status: Arrived
Operator:
Southwest Airlines
More flights by this operator :: More flights under this callsign
Pilot: Drew L. (13237)
Aircraft: BOEING 737-700
(B737)
More flights by this aircraft type
Origin: KDAL Dallas Love
United States
Destination: KAUS Austin Bergstrom Intl
United States
More flights between these airports :: More routes between these airports
Route: CURLO4 WINDU SEWZY4
File this flight plan on PilotEdge
Remarks: RMK / SIMBRIEF
Altitude:
(Current/Filed)
28,000ft
Speed:
(Current/Filed)
474kts
Departed: 10-May-19 05:09 PM
Arrived: 10-May-19 05:48 PM
Distance/Time
Traveled:
164nm/0:39
Distance/Time
To Go:
Arrived

Flight Plot

Page will automatically refresh every two minutes.

Flight plan parsing failed; only flown route is shown


Map Options




Map Legend


Flown Route
Filed Route
Departure Airport
Arrival Airport
Navaid (VOR, NDB)
Fix

Horizontal Profiles

Position Reports

Time Latitude Longitude Heading Altitude Ground
Speed
10-May-19 16:03 32.846606 -96.851828 181 480ft 0kts
10-May-19 16:04 32.846606 -96.851828 181 480ft 0kts
10-May-19 16:05 32.846606 -96.851828 181 480ft 0kts
10-May-19 16:06 32.846606 -96.851828 181 480ft 0kts
10-May-19 16:07 32.846606 -96.851828 181 480ft 0kts
10-May-19 16:08 32.846606 -96.851828 181 480ft 0kts
10-May-19 16:09 32.846606 -96.851828 181 480ft 0kts
10-May-19 16:10 32.846606 -96.851828 181 480ft 0kts
10-May-19 16:11 32.846606 -96.851828 181 480ft 0kts
10-May-19 16:12 32.846606 -96.851828 181 480ft 0kts
10-May-19 16:13 32.846606 -96.851828 181 480ft 0kts
10-May-19 16:14 32.846606 -96.851828 181 480ft 0kts
10-May-19 16:15 32.846606 -96.851828 181 480ft 0kts
10-May-19 16:16 32.846606 -96.851828 181 480ft 0kts
10-May-19 16:17 32.846606 -96.851828 181 480ft 0kts
10-May-19 16:18 32.846606 -96.851828 181 480ft 0kts
10-May-19 16:19 32.846606 -96.851828 181 480ft 0kts
10-May-19 16:20 32.846606 -96.851828 181 480ft 0kts
10-May-19 16:21 32.846606 -96.851828 181 480ft 0kts
10-May-19 16:22 32.846606 -96.851828 181 480ft 0kts
10-May-19 16:23 32.846606 -96.851828 181 480ft 0kts
10-May-19 16:24 32.846606 -96.851828 181 480ft 0kts
10-May-19 16:25 32.846606 -96.851828 181 480ft 0kts
10-May-19 16:26 32.846606 -96.851828 181 480ft 0kts
10-May-19 16:27 32.846606 -96.851828 181 480ft 0kts
10-May-19 16:28 32.846606 -96.851828 181 480ft 0kts
10-May-19 16:29 32.846606 -96.851828 181 480ft 0kts
10-May-19 16:30 32.846606 -96.851828 181 480ft 0kts
10-May-19 16:31 32.846606 -96.851828 181 480ft 0kts
10-May-19 16:32 32.846606 -96.851828 181 480ft 0kts
10-May-19 16:33 32.846606 -96.851828 181 480ft 0kts
10-May-19 16:34 32.846606 -96.851828 181 480ft 0kts
10-May-19 16:35 32.846606 -96.851828 181 480ft 0kts
10-May-19 16:36 32.846606 -96.851828 181 480ft 0kts
10-May-19 16:37 32.846606 -96.851828 181 480ft 0kts
10-May-19 16:38 32.846606 -96.851828 181 480ft 0kts
10-May-19 16:39 32.846606 -96.851828 181 480ft 0kts
10-May-19 16:40 32.846606 -96.851828 181 480ft 0kts
10-May-19 16:41 32.846606 -96.851828 181 480ft 0kts
10-May-19 16:42 32.846606 -96.851828 181 480ft 0kts
10-May-19 16:43 32.846606 -96.851828 181 480ft 0kts
10-May-19 16:44 32.846606 -96.851828 181 480ft 0kts
10-May-19 16:45 32.846606 -96.851828 181 480ft 0kts
10-May-19 16:46 32.846606 -96.851828 181 480ft 0kts
10-May-19 16:47 32.846606 -96.851828 181 480ft 0kts
10-May-19 16:48 32.846606 -96.851828 181 480ft 0kts
10-May-19 16:49 32.846606 -96.851828 181 480ft 0kts
10-May-19 16:50 32.846606 -96.851828 181 480ft 0kts
10-May-19 16:51 32.846606 -96.851828 181 480ft 0kts
10-May-19 16:52 32.846606 -96.851828 181 480ft 0kts
10-May-19 16:53 32.846606 -96.851828 181 480ft 0kts
10-May-19 16:54 32.846606 -96.851828 181 480ft 0kts
10-May-19 16:55 32.846606 -96.851828 181 480ft 0kts
10-May-19 16:56 32.846606 -96.851828 181 480ft 0kts
10-May-19 16:57 32.846606 -96.851828 181 480ft 0kts
10-May-19 16:58 32.846606 -96.851828 181 480ft 0kts
10-May-19 16:59 32.846606 -96.851828 181 480ft 0kts
10-May-19 17:00 32.846606 -96.851828 181 480ft 0kts
10-May-19 17:01 32.846790 -96.851821 181 480ft 2kts
10-May-19 17:02 32.847307 -96.851805 181 480ft 0kts
10-May-19 17:03 32.847307 -96.851805 181 480ft 0kts
10-May-19 17:04 32.847273 -96.851810 187 480ft 1kts
10-May-19 17:05 32.843602 -96.852710 135 477ft 21kts
10-May-19 17:06 32.839249 -96.847621 134 477ft 21kts
10-May-19 17:07 32.835094 -96.842869 155 477ft 10kts
10-May-19 17:08 32.840232 -96.850590 315 477ft 128kts
10-May-19 17:09 32.873033 -96.885863 321 2646ft 162kts
10-May-19 17:10 32.854767 -96.922922 194 4409ft 198kts
10-May-19 17:11 32.793521 -96.938057 190 6354ft 253kts
10-May-19 17:12 32.721869 -96.955790 189 9153ft 268kts
10-May-19 17:13 32.644924 -96.974017 191 11271ft 301kts
10-May-19 17:14 32.561777 -96.993703 192 14121ft 312kts
10-May-19 17:15 32.475499 -97.014098 193 17105ft 322kts
10-May-19 17:16 32.386141 -97.035186 193 19814ft 334kts
10-May-19 17:17 32.293735 -97.056543 191 22260ft 345kts
10-May-19 17:18 32.195859 -97.061894 185 24447ft 358kts
10-May-19 17:19 32.094890 -97.064940 185 26421ft 369kts
10-May-19 17:20 31.990784 -97.068192 186 27967ft 381kts
10-May-19 17:21 31.881668 -97.071605 185 27993ft 400kts
10-May-19 17:22 31.772243 -97.074986 185 27993ft 400kts
10-May-19 17:23 31.661440 -97.078414 185 27991ft 386kts
10-May-19 17:24 31.557738 -97.083128 191 28084ft 371kts
10-May-19 17:25 31.458382 -97.110964 200 28079ft 366kts
10-May-19 17:26 31.361649 -97.148586 201 27161ft 363kts
10-May-19 17:27 31.267589 -97.185365 200 25341ft 354kts
10-May-19 17:28 31.175112 -97.221414 200 23510ft 346kts
10-May-19 17:29 31.084938 -97.256468 200 21680ft 339kts
10-May-19 17:30 30.996611 -97.290808 199 19847ft 333kts
10-May-19 17:32 30.909577 -97.324665 199 18014ft 328kts
10-May-19 17:33 30.825290 -97.357669 199 16243ft 322kts
10-May-19 17:34 30.744961 -97.401297 206 14442ft 316kts
10-May-19 17:35 30.667174 -97.445694 206 12645ft 310kts
10-May-19 17:36 30.587701 -97.481868 200 10840ft 304kts
10-May-19 17:37 30.509440 -97.516801 203 9303ft 293kts
10-May-19 17:38 30.438653 -97.548526 203 8535ft 260kts
10-May-19 17:39 30.371040 -97.569753 182 7522ft 251kts
10-May-19 17:40 30.302019 -97.569003 182 6595ft 244kts
10-May-19 17:41 30.233460 -97.567861 180 5569ft 247kts
10-May-19 17:42 30.165938 -97.565920 180 5001ft 225kts
10-May-19 17:43 30.103598 -97.563935 179 4063ft 223kts
10-May-19 17:44 30.068837 -97.600061 289 2850ft 185kts
10-May-19 17:45 30.092800 -97.646340 332 2008ft 137kts
10-May-19 17:46 30.128606 -97.656031 0 1496ft 133kts
10-May-19 17:47 30.165525 -97.656912 359 777ft 132kts
10-May-19 17:48 30.191169 -97.657492 359 477ft 34kts
10-May-19 17:49 30.196010 -97.658910 358 483ft 25kts
10-May-19 17:50 30.198435 -97.663518 280 490ft 15kts
10-May-19 17:51 30.200913 -97.663973 335 495ft 5kts
10-May-19 17:52 30.201273 -97.665847 345 498ft 4kts
10-May-19 17:52 30.201356 -97.665871 345 498ft 0kts
10-May-19 17:54 30.201356 -97.665871 345 498ft 0kts
10-May-19 17:54 30.201356 -97.665871 345 498ft 0kts

Navigation Log

Ident Type
Flight plan parsing failed, navigation log unavailable